JBU918 KJFK-KBOS
Flight info
| Callsign | JBU918 |
|---|---|
| Flight time | N/A |
| Altitude | 21000 |
| Route | MERIT ROBUC3 |
| Aircraft | A320/M-SDE3FGHIRWY/LB1 |
Departure
| Time | 2026-05-05 00:23 |
|---|---|
| Airport | John F. Kennedy International Airport (KJFK) |
Arrival
| Time | N/A |
|---|---|
| Airport | Boston Logan International Airport (KBOS) |
| Time | Latitude | Longitude | Altitude | Speed | Heading |
|---|---|---|---|---|---|
| 2026-05-04 23:51 | 40.64696 | -73.77572 | 27 ft | 0 kts | 230° |
| 2026-05-05 00:10 | 40.64700 | -73.77565 | 25 ft | 4 kts | 230° |
| 2026-05-05 00:10 | 40.64717 | -73.77538 | 26 ft | 2 kts | 230° |
| 2026-05-05 00:10 | 40.64731 | -73.77521 | 23 ft | 4 kts | 179° |
| 2026-05-05 00:11 | 40.64750 | -73.77535 | 23 ft | 3 kts | 121° |
| 2026-05-05 00:11 | 40.64763 | -73.77565 | 25 ft | 4 kts | 121° |
| 2026-05-05 00:11 | 40.64774 | -73.77589 | 23 ft | 4 kts | 121° |
| 2026-05-05 00:11 | 40.64777 | -73.77595 | 26 ft | 0 kts | 121° |
| 2026-05-05 00:15 | 40.64777 | -73.77594 | 26 ft | 1 kts | 121° |
| 2026-05-05 00:15 | 40.64771 | -73.77581 | 24 ft | 3 kts | 121° |
| 2026-05-05 00:16 | 40.64756 | -73.77549 | 23 ft | 5 kts | 121° |
| 2026-05-05 00:16 | 40.64733 | -73.77497 | 23 ft | 8 kts | 121° |
| 2026-05-05 00:16 | 40.64723 | -73.77424 | 23 ft | 10 kts | 61° |
| 2026-05-05 00:16 | 40.64773 | -73.77359 | 25 ft | 11 kts | 31° |
| 2026-05-05 00:17 | 40.64783 | -73.77304 | 23 ft | 11 kts | 111° |
| 2026-05-05 00:17 | 40.64747 | -73.77211 | 22 ft | 12 kts | 76° |
| 2026-05-05 00:17 | 40.64777 | -73.77110 | 23 ft | 12 kts | 109° |
| 2026-05-05 00:17 | 40.64735 | -73.77006 | 24 ft | 14 kts | 123° |
| 2026-05-05 00:18 | 40.64672 | -73.76872 | 18 ft | 18 kts | 103° |
| 2026-05-05 00:18 | 40.64705 | -73.76819 | 20 ft | 4 kts | 346° |
| 2026-05-05 00:18 | 40.64737 | -73.76810 | 18 ft | 6 kts | 21° |
| 2026-05-05 00:18 | 40.64778 | -73.76784 | 19 ft | 7 kts | 42° |
| 2026-05-05 00:19 | 40.64821 | -73.76742 | 20 ft | 9 kts | 30° |
| 2026-05-05 00:19 | 40.64865 | -73.76709 | 22 ft | 8 kts | 29° |
| 2026-05-05 00:19 | 40.64922 | -73.76665 | 21 ft | 11 kts | 30° |
| 2026-05-05 00:19 | 40.64994 | -73.76610 | 21 ft | 11 kts | 30° |
| 2026-05-05 00:20 | 40.64999 | -73.76606 | 21 ft | 1 kts | 30° |
| 2026-05-05 00:20 | 40.65016 | -73.76592 | 21 ft | 4 kts | 36° |
| 2026-05-05 00:20 | 40.65011 | -73.76569 | 21 ft | 3 kts | 120° |
| 2026-05-05 00:20 | 40.64997 | -73.76538 | 23 ft | 5 kts | 120° |
| 2026-05-05 00:21 | 40.64979 | -73.76494 | 22 ft | 6 kts | 117° |
| 2026-05-05 00:21 | 40.64953 | -73.76440 | 22 ft | 8 kts | 141° |
| 2026-05-05 00:21 | 40.64894 | -73.76456 | 22 ft | 10 kts | 209° |
| 2026-05-05 00:21 | 40.64884 | -73.76463 | 22 ft | 1 kts | 209° |
| 2026-05-05 00:22 | 40.64873 | -73.76471 | 21 ft | 0 kts | 209° |
| 2026-05-05 00:22 | 40.64854 | -73.76485 | 21 ft | 16 kts | 209° |
| 2026-05-05 00:22 | 40.64552 | -73.76720 | 20 ft | 82 kts | 210° |
| 2026-05-05 00:22 | 40.63911 | -73.77223 | 22 ft | 130 kts | 211° |
| 2026-05-05 00:23 | 40.62995 | -73.77884 | 92 ft | 164 kts | 205° |
| 2026-05-05 00:23 | 40.61968 | -73.78578 | 618 ft | 170 kts | 207° |
| 2026-05-05 00:23 | 40.60945 | -73.79374 | 1281 ft | 171 kts | 212° |
| 2026-05-05 00:23 | 40.59893 | -73.80268 | 1676 ft | 190 kts | 214° |
| 2026-05-05 00:24 | 40.58726 | -73.81266 | 2035 ft | 212 kts | 215° |
| 2026-05-05 00:24 | 40.57361 | -73.82244 | 2437 ft | 237 kts | 198° |
| 2026-05-05 00:24 | 40.55674 | -73.82269 | 3163 ft | 254 kts | 169° |
| 2026-05-05 00:24 | 40.54093 | -73.81117 | 4005 ft | 270 kts | 140° |
| 2026-05-05 00:25 | 40.53044 | -73.79024 | 4872 ft | 283 kts | 112° |
| 2026-05-05 00:25 | 40.52643 | -73.76458 | 5717 ft | 290 kts | 99° |
| 2026-05-05 00:25 | 40.52387 | -73.73812 | 6556 ft | 294 kts | 98° |
| 2026-05-05 00:25 | 40.52119 | -73.71128 | 7337 ft | 298 kts | 98° |
| 2026-05-05 00:26 | 40.51834 | -73.68412 | 8119 ft | 303 kts | 97° |
| 2026-05-05 00:26 | 40.51874 | -73.65637 | 8878 ft | 306 kts | 75° |
| 2026-05-05 00:26 | 40.52699 | -73.63091 | 9641 ft | 303 kts | 51° |
| 2026-05-05 00:26 | 40.54066 | -73.60986 | 10319 ft | 307 kts | 43° |
| 2026-05-05 00:27 | 40.55538 | -73.58863 | 10522 ft | 330 kts | 43° |
| 2026-05-05 00:27 | 40.57161 | -73.56530 | 10671 ft | 353 kts | 44° |
| 2026-05-05 00:27 | 40.58846 | -73.54099 | 10902 ft | 371 kts | 44° |
| 2026-05-05 00:27 | 40.60592 | -73.51553 | 11443 ft | 377 kts | 45° |
| 2026-05-05 00:28 | 40.62355 | -73.48966 | 12039 ft | 382 kts | 44° |
| 2026-05-05 00:28 | 40.64140 | -73.46342 | 12636 ft | 387 kts | 44° |
| 2026-05-05 00:28 | 40.65949 | -73.43684 | 13228 ft | 392 kts | 44° |
| 2026-05-05 00:28 | 40.67783 | -73.40986 | 13802 ft | 397 kts | 44° |
| 2026-05-05 00:29 | 40.69637 | -73.38258 | 14347 ft | 401 kts | 44° |
| 2026-05-05 00:29 | 40.71503 | -73.35511 | 14898 ft | 404 kts | 44° |
| 2026-05-05 00:29 | 40.73383 | -73.32740 | 15476 ft | 406 kts | 44° |
| 2026-05-05 00:29 | 40.75273 | -73.29953 | 16046 ft | 409 kts | 44° |
| 2026-05-05 00:30 | 40.77176 | -73.27148 | 16644 ft | 412 kts | 45° |
| 2026-05-05 00:30 | 40.79096 | -73.24320 | 17240 ft | 415 kts | 45° |
| 2026-05-05 00:30 | 40.81032 | -73.21468 | 17818 ft | 418 kts | 45° |
| 2026-05-05 00:30 | 40.82977 | -73.18595 | 18380 ft | 422 kts | 45° |
| 2026-05-05 00:31 | 40.84940 | -73.15685 | 18924 ft | 425 kts | 45° |
| 2026-05-05 00:31 | 40.86908 | -73.12762 | 19459 ft | 427 kts | 45° |
| 2026-05-05 00:31 | 40.88884 | -73.09825 | 20024 ft | 429 kts | 45° |
| 2026-05-05 00:31 | 40.90874 | -73.06868 | 20553 ft | 431 kts | 45° |
| 2026-05-05 00:32 | 40.92846 | -73.03938 | 20862 ft | 432 kts | 45° |
| 2026-05-05 00:32 | 40.94862 | -73.00942 | 20955 ft | 441 kts | 45° |
| 2026-05-05 00:32 | 40.96944 | -72.97858 | 20953 ft | 455 kts | 45° |
| 2026-05-05 00:32 | 40.99076 | -72.94703 | 20961 ft | 463 kts | 45° |
| 2026-05-05 00:33 | 41.01228 | -72.91507 | 20950 ft | 466 kts | 45° |
| 2026-05-05 00:33 | 41.03387 | -72.88282 | 20952 ft | 467 kts | 45° |
| 2026-05-05 00:33 | 41.05540 | -72.85055 | 20935 ft | 467 kts | 45° |
| 2026-05-05 00:33 | 41.07635 | -72.81760 | 20928 ft | 469 kts | 49° |
| 2026-05-05 00:34 | 41.09613 | -72.78326 | 20931 ft | 469 kts | 50° |
| 2026-05-05 00:34 | 41.11558 | -72.74844 | 20932 ft | 469 kts | 50° |
| 2026-05-05 00:34 | 41.13451 | -72.71386 | 20928 ft | 470 kts | 51° |
| 2026-05-05 00:34 | 41.15361 | -72.67873 | 20928 ft | 470 kts | 51° |
| 2026-05-05 00:35 | 41.17275 | -72.64354 | 20930 ft | 470 kts | 51° |
| 2026-05-05 00:35 | 41.19192 | -72.60843 | 20939 ft | 469 kts | 51° |
| 2026-05-05 00:35 | 41.21113 | -72.57343 | 20935 ft | 469 kts | 50° |
| 2026-05-05 00:35 | 41.23038 | -72.53848 | 20935 ft | 469 kts | 50° |
| 2026-05-05 00:36 | 41.24924 | -72.50419 | 20935 ft | 447 kts | 50° |
| 2026-05-05 00:36 | 41.26710 | -72.47158 | 20960 ft | 427 kts | 50° |
| 2026-05-05 00:36 | 41.28424 | -72.44028 | 20940 ft | 411 kts | 50° |
| 2026-05-05 00:36 | 41.30075 | -72.41010 | 20940 ft | 395 kts | 50° |
| 2026-05-05 00:37 | 41.31659 | -72.38114 | 20941 ft | 380 kts | 50° |
| 2026-05-05 00:37 | 41.33207 | -72.35290 | 20941 ft | 375 kts | 49° |
| 2026-05-05 00:37 | 41.34747 | -72.32489 | 20941 ft | 374 kts | 49° |
| 2026-05-05 00:37 | 41.36284 | -72.29694 | 20941 ft | 374 kts | 49° |
| 2026-05-05 00:38 | 41.37818 | -72.26895 | 20902 ft | 373 kts | 50° |
| 2026-05-05 00:38 | 41.39337 | -72.24113 | 20503 ft | 371 kts | 50° |
| 2026-05-05 00:38 | 41.40848 | -72.21339 | 20089 ft | 368 kts | 50° |
| 2026-05-05 00:38 | 41.42344 | -72.18583 | 19692 ft | 367 kts | 50° |
| 2026-05-05 00:39 | 41.43837 | -72.15836 | 19282 ft | 365 kts | 50° |
| 2026-05-05 00:39 | 41.45305 | -72.13137 | 18883 ft | 364 kts | 50° |
| 2026-05-05 00:39 | 41.46790 | -72.10410 | 18481 ft | 363 kts | 50° |
| 2026-05-05 00:39 | 41.48270 | -72.07689 | 18072 ft | 361 kts | 50° |
| 2026-05-05 00:40 | 41.49739 | -72.04982 | 17619 ft | 359 kts | 50° |
| 2026-05-05 00:40 | 41.51199 | -72.02284 | 17206 ft | 357 kts | 51° |
| 2026-05-05 00:40 | 41.52646 | -71.99605 | 17027 ft | 355 kts | 51° |
| 2026-05-05 00:40 | 41.54094 | -71.96922 | 17050 ft | 357 kts | 51° |
| 2026-05-05 00:41 | 41.55548 | -71.94228 | 17053 ft | 356 kts | 51° |
| 2026-05-05 00:41 | 41.56973 | -71.91586 | 17050 ft | 347 kts | 51° |
| 2026-05-05 00:41 | 41.58375 | -71.88974 | 16938 ft | 345 kts | 52° |
| 2026-05-05 00:41 | 41.59606 | -71.86232 | 16576 ft | 344 kts | 60° |
| 2026-05-05 00:42 | 41.60595 | -71.83323 | 16219 ft | 344 kts | 66° |
| 2026-05-05 00:42 | 41.61467 | -71.80353 | 15862 ft | 342 kts | 66° |
| 2026-05-05 00:42 | 41.62341 | -71.77397 | 15511 ft | 341 kts | 66° |
| 2026-05-05 00:42 | 41.63210 | -71.74455 | 15168 ft | 339 kts | 66° |
| 2026-05-05 00:43 | 41.64073 | -71.71530 | 14833 ft | 338 kts | 66° |
| 2026-05-05 00:43 | 41.64930 | -71.68617 | 14493 ft | 336 kts | 66° |
| 2026-05-05 00:43 | 41.65773 | -71.65742 | 14166 ft | 335 kts | 66° |
| 2026-05-05 00:43 | 41.66622 | -71.62851 | 13844 ft | 333 kts | 67° |
| 2026-05-05 00:44 | 41.67465 | -71.59974 | 13490 ft | 332 kts | 67° |
| 2026-05-05 00:44 | 41.68302 | -71.57107 | 13134 ft | 329 kts | 67° |
| 2026-05-05 00:44 | 41.69134 | -71.54266 | 12804 ft | 327 kts | 66° |
| 2026-05-05 00:44 | 41.69960 | -71.51444 | 12463 ft | 325 kts | 66° |
| 2026-05-05 00:45 | 41.70780 | -71.48638 | 12146 ft | 322 kts | 67° |
| 2026-05-05 00:45 | 41.71589 | -71.45855 | 12048 ft | 320 kts | 67° |
| 2026-05-05 00:45 | 41.72431 | -71.43095 | 12062 ft | 320 kts | 62° |
| 2026-05-05 00:45 | 41.73510 | -71.40489 | 12064 ft | 320 kts | 58° |
| 2026-05-05 00:46 | 41.74622 | -71.37908 | 12063 ft | 320 kts | 58° |
| 2026-05-05 00:46 | 41.75735 | -71.35319 | 12063 ft | 320 kts | 58° |
| 2026-05-05 00:46 | 41.76846 | -71.32730 | 12063 ft | 320 kts | 58° |
| 2026-05-05 00:46 | 41.77954 | -71.30144 | 12062 ft | 320 kts | 58° |
| 2026-05-05 00:47 | 41.79062 | -71.27548 | 12063 ft | 323 kts | 58° |
| 2026-05-05 00:47 | 41.80158 | -71.24975 | 12062 ft | 322 kts | 58° |
| 2026-05-05 00:47 | 41.81275 | -71.22347 | 12058 ft | 322 kts | 58° |
| 2026-05-05 00:47 | 41.82379 | -71.19741 | 12062 ft | 321 kts | 58° |
| 2026-05-05 00:48 | 41.83480 | -71.17143 | 12063 ft | 320 kts | 58° |
| 2026-05-05 00:48 | 41.84582 | -71.14548 | 12063 ft | 320 kts | 58° |
| 2026-05-05 00:48 | 41.85686 | -71.11955 | 11908 ft | 319 kts | 58° |
| 2026-05-05 00:48 | 41.86785 | -71.09395 | 11701 ft | 316 kts | 58° |
| 2026-05-05 00:49 | 41.87884 | -71.06853 | 11352 ft | 314 kts | 58° |
| 2026-05-05 00:49 | 41.88979 | -71.04324 | 11028 ft | 312 kts | 58° |
| 2026-05-05 00:49 | 41.90063 | -71.01813 | 10715 ft | 310 kts | 58° |
| 2026-05-05 00:49 | 41.91138 | -70.99319 | 10408 ft | 308 kts | 58° |
| 2026-05-05 00:50 | 41.92205 | -70.96841 | 10129 ft | 305 kts | 57° |
| 2026-05-05 00:50 | 41.93266 | -70.94385 | 10052 ft | 304 kts | 57° |
| 2026-05-05 00:50 | 41.94333 | -70.91922 | 10061 ft | 305 kts | 57° |
| 2026-05-05 00:50 | 41.95390 | -70.89466 | 10062 ft | 305 kts | 57° |
| 2026-05-05 00:51 | 41.96450 | -70.86996 | 10050 ft | 305 kts | 57° |
| 2026-05-05 00:51 | 41.97506 | -70.84529 | 10053 ft | 305 kts | 57° |
| 2026-05-05 00:51 | 41.98563 | -70.82059 | 10053 ft | 304 kts | 58° |
| 2026-05-05 00:51 | 41.99621 | -70.79591 | 10057 ft | 304 kts | 57° |
| 2026-05-05 00:52 | 42.00685 | -70.77129 | 10053 ft | 304 kts | 55° |
| 2026-05-05 00:52 | 42.01960 | -70.74899 | 9795 ft | 298 kts | 44° |
| 2026-05-05 00:52 | 42.03350 | -70.72826 | 9434 ft | 297 kts | 45° |
| 2026-05-05 00:52 | 42.04714 | -70.70794 | 9088 ft | 296 kts | 44° |
| 2026-05-05 00:53 | 42.06094 | -70.68737 | 8727 ft | 295 kts | 45° |
| 2026-05-05 00:53 | 42.07467 | -70.66688 | 8377 ft | 294 kts | 45° |
| 2026-05-05 00:53 | 42.08834 | -70.64643 | 8080 ft | 292 kts | 45° |
| 2026-05-05 00:53 | 42.10302 | -70.62776 | 8049 ft | 290 kts | 32° |
| 2026-05-05 00:54 | 42.12044 | -70.61450 | 8038 ft | 285 kts | 18° |
| 2026-05-05 00:54 | 42.13930 | -70.60731 | 7710 ft | 280 kts | 7° |
| 2026-05-05 00:54 | 42.15839 | -70.60218 | 7353 ft | 280 kts | 7° |
| 2026-05-05 00:54 | 42.17746 | -70.59693 | 7034 ft | 279 kts | 6° |
| 2026-05-05 00:55 | 42.19641 | -70.59166 | 6698 ft | 278 kts | 6° |
| 2026-05-05 00:55 | 42.21528 | -70.58641 | 6375 ft | 277 kts | 6° |
| 2026-05-05 00:55 | 42.23412 | -70.58117 | 6036 ft | 276 kts | 6° |
| 2026-05-05 00:55 | 42.25293 | -70.57589 | 5673 ft | 276 kts | 6° |
| 2026-05-05 00:56 | 42.27168 | -70.57064 | 5329 ft | 275 kts | 6° |
| 2026-05-05 00:56 | 42.29039 | -70.56541 | 5046 ft | 273 kts | 6° |
| 2026-05-05 00:56 | 42.30912 | -70.56293 | 5030 ft | 269 kts | 351° |
| 2026-05-05 00:56 | 42.32720 | -70.56780 | 5021 ft | 262 kts | 334° |
| 2026-05-05 00:57 | 42.34310 | -70.57914 | 5025 ft | 256 kts | 318° |
| 2026-05-05 00:57 | 42.35619 | -70.59506 | 5023 ft | 253 kts | 311° |
| 2026-05-05 00:57 | 42.36880 | -70.61169 | 5014 ft | 253 kts | 311° |
| 2026-05-05 00:57 | 42.38143 | -70.62832 | 5010 ft | 253 kts | 311° |
| 2026-05-05 00:58 | 42.39387 | -70.64466 | 5009 ft | 253 kts | 311° |
| 2026-05-05 00:58 | 42.40652 | -70.66122 | 4997 ft | 253 kts | 311° |
| 2026-05-05 00:58 | 42.41917 | -70.67782 | 4991 ft | 253 kts | 311° |
| 2026-05-05 00:58 | 42.43184 | -70.69448 | 4989 ft | 253 kts | 311° |
| 2026-05-05 00:59 | 42.44447 | -70.71113 | 4986 ft | 254 kts | 311° |
| 2026-05-05 00:59 | 42.45712 | -70.72783 | 4987 ft | 254 kts | 311° |
| 2026-05-05 00:59 | 42.46976 | -70.74449 | 4982 ft | 253 kts | 311° |
| 2026-05-05 00:59 | 42.47810 | -70.75550 | 4982 ft | 253 kts | 311° |
| 2026-05-05 01:00 | 42.49496 | -70.77778 | 4980 ft | 253 kts | 311° |
| 2026-05-05 01:00 | 42.50324 | -70.78870 | 4939 ft | 247 kts | 311° |
| 2026-05-05 01:00 | 42.51570 | -70.80423 | 4801 ft | 241 kts | 320° |
| 2026-05-05 01:00 | 42.53667 | -70.81326 | 4634 ft | 244 kts | 356° |
| 2026-05-05 01:01 | 42.55333 | -70.80813 | 4404 ft | 247 kts | 14° |
| 2026-05-05 01:01 | 42.56922 | -70.80035 | 4220 ft | 240 kts | 14° |
| 2026-05-05 01:01 | 42.57980 | -70.79511 | 4018 ft | 239 kts | 14° |
| 2026-05-05 01:01 | 42.59539 | -70.78730 | 3742 ft | 239 kts | 15° |
| 2026-05-05 01:02 | 42.61087 | -70.77965 | 3417 ft | 239 kts | 11° |
| 2026-05-05 01:02 | 42.62693 | -70.77852 | 3028 ft | 225 kts | 335° |
| 2026-05-05 01:02 | 42.63879 | -70.78923 | 3407 ft | 199 kts | 296° |
| 2026-05-05 01:02 | 42.64283 | -70.80586 | 4395 ft | 165 kts | 276° |